createdAt,value
2018-09-15T00:01:55.735Z,3.60
2018-09-15T00:04:23.854Z,3.40
2018-09-15T00:06:52.368Z,3.17
2018-09-15T00:09:20.382Z,3.27
2018-09-15T00:11:48.074Z,3.47
2018-09-15T00:14:15.682Z,3.60
2018-09-15T00:16:43.425Z,3.73
2018-09-15T00:19:11.116Z,3.30
2018-09-15T00:21:39.081Z,3.83
2018-09-15T00:24:07.230Z,3.27
2018-09-15T00:26:34.966Z,4.00
2018-09-15T00:29:02.660Z,3.63
2018-09-15T00:31:30.317Z,3.83
2018-09-15T00:33:58.082Z,3.60
2018-09-15T00:36:26.307Z,3.47
2018-09-15T00:38:53.978Z,3.20
2018-09-15T00:41:21.729Z,3.67
2018-09-15T00:43:50.189Z,3.57
2018-09-15T00:46:17.891Z,3.50
2018-09-15T00:48:45.893Z,3.73
2018-09-15T00:51:13.555Z,3.43
2018-09-15T00:53:41.243Z,3.80
2018-09-15T00:56:09.405Z,3.67
2018-09-15T00:58:37.157Z,3.83
2018-09-15T01:01:04.987Z,3.53
2018-09-15T01:03:32.808Z,4.00
2018-09-15T01:06:00.451Z,3.50
2018-09-15T01:08:28.108Z,3.57
2018-09-15T01:10:56.009Z,3.37
2018-09-15T01:13:23.739Z,3.90
2018-09-15T01:15:51.410Z,3.53
2018-09-15T01:18:19.714Z,3.37
2018-09-15T01:20:47.374Z,3.27
2018-09-15T01:23:14.999Z,3.60
2018-09-15T01:25:42.787Z,3.77
2018-09-15T01:28:10.437Z,3.60
2018-09-15T01:30:38.841Z,4.17
2018-09-15T01:33:07.245Z,3.47
2018-09-15T01:35:34.961Z,3.60
2018-09-15T01:38:02.719Z,4.03
2018-09-15T01:40:30.370Z,4.03
2018-09-15T01:42:58.098Z,3.67
2018-09-15T01:45:26.173Z,3.83
2018-09-15T01:47:53.878Z,4.10
2018-09-15T01:50:21.634Z,4.03
2018-09-15T01:52:49.629Z,3.93
2018-09-15T01:55:17.301Z,3.67
2018-09-15T01:57:44.986Z,3.97
2018-09-15T02:00:12.831Z,4.63
2018-09-15T02:02:40.516Z,3.77
2018-09-15T02:05:08.849Z,4.07
2018-09-15T02:07:36.629Z,4.00
2018-09-15T02:10:21.934Z,3.83
2018-09-15T02:12:50.307Z,3.57
2018-09-15T02:15:18.314Z,3.80
2018-09-15T02:17:46.040Z,3.77
2018-09-15T02:20:13.667Z,3.73
2018-09-15T02:22:41.499Z,4.07
2018-09-15T02:25:09.101Z,3.40
2018-09-15T02:27:36.722Z,3.33
2018-09-15T02:30:04.474Z,4.00
2018-09-15T02:32:32.070Z,4.10
2018-09-15T02:34:59.745Z,4.10
2018-09-15T02:37:27.400Z,3.70
2018-09-15T02:39:55.051Z,4.00
2018-09-15T02:42:22.645Z,4.07
2018-09-15T02:44:50.275Z,3.67
2018-09-15T02:47:18.037Z,3.10
2018-09-15T02:49:45.685Z,3.50
2018-09-15T02:52:13.448Z,3.33
2018-09-15T02:54:41.250Z,3.67
2018-09-15T02:57:09.028Z,3.70
2018-09-15T02:59:36.663Z,3.70
2018-09-15T03:02:09.204Z,3.80
2018-09-15T03:04:39.944Z,3.67
2018-09-15T03:07:08.007Z,4.00
2018-09-15T03:09:36.017Z,3.80
2018-09-15T03:12:07.497Z,3.53
2018-09-15T03:14:35.309Z,3.93
2018-09-15T03:17:08.495Z,4.07
2018-09-15T03:19:36.113Z,3.80
2018-09-15T03:22:19.757Z,4.00
2018-09-15T03:24:47.398Z,3.43
2018-09-15T03:27:15.099Z,3.50
2018-09-15T03:29:42.997Z,3.73
2018-09-15T03:32:10.627Z,3.43
2018-09-15T03:34:38.358Z,3.20
2018-09-15T03:37:06.397Z,3.60
2018-09-15T03:39:34.017Z,3.47
2018-09-15T03:42:01.713Z,3.50
2018-09-15T03:44:29.526Z,3.23
2018-09-15T03:46:57.198Z,3.30
2018-09-15T03:49:24.836Z,3.17
2018-09-15T03:51:52.777Z,3.53
2018-09-15T03:54:21.318Z,3.10
2018-09-15T03:56:49.538Z,3.70
2018-09-15T03:59:17.994Z,2.97
2018-09-15T04:01:46.276Z,3.63
2018-09-15T04:04:13.902Z,3.60
2018-09-15T04:06:42.133Z,3.27
2018-09-15T04:09:10.998Z,3.10
2018-09-15T04:11:38.678Z,3.60
2018-09-15T04:14:08.400Z,3.77
2018-09-15T04:16:36.114Z,3.67
2018-09-15T04:19:08.008Z,4.17
2018-09-15T04:21:35.650Z,3.90
2018-09-15T04:24:08.473Z,4.00
2018-09-15T04:26:36.113Z,3.97
2018-09-15T04:29:07.883Z,3.40
2018-09-15T04:31:35.765Z,4.10
2018-09-15T04:34:03.397Z,4.23
2018-09-15T04:36:31.204Z,3.70
2018-09-15T04:38:59.014Z,4.17
2018-09-15T04:41:26.647Z,3.77
2018-09-15T04:43:54.478Z,4.33
2018-09-15T04:46:22.295Z,3.97
2018-09-15T04:48:49.917Z,4.30
2018-09-15T04:51:17.997Z,3.47
2018-09-15T04:53:45.595Z,3.87
2018-09-15T04:56:13.260Z,3.93
2018-09-15T04:58:41.275Z,3.90
2018-09-15T05:01:09.250Z,3.93
2018-09-15T05:03:37.164Z,3.87
2018-09-15T05:06:04.926Z,4.43
2018-09-15T05:08:32.604Z,3.97
2018-09-15T05:11:00.678Z,4.10
2018-09-15T05:13:28.395Z,4.17
2018-09-15T05:15:56.029Z,4.10
2018-09-15T05:18:23.700Z,4.10
2018-09-15T05:20:51.298Z,4.03
2018-09-15T05:23:18.940Z,3.77
2018-09-15T05:25:46.479Z,4.60
2018-09-15T05:28:14.146Z,4.30
2018-09-15T05:30:41.761Z,4.63
2018-09-15T05:33:09.513Z,4.20
2018-09-15T05:35:37.127Z,3.57
2018-09-15T05:38:05.077Z,4.23
2018-09-15T05:40:33.224Z,4.23
2018-09-15T05:43:00.949Z,4.03
2018-09-15T05:45:28.610Z,4.57
2018-09-15T05:47:56.303Z,4.17
2018-09-15T05:50:24.032Z,4.20
2018-09-15T05:52:52.460Z,4.57
2018-09-15T05:55:20.441Z,4.87
2018-09-15T05:57:48.144Z,4.27
2018-09-15T06:00:15.848Z,4.83
2018-09-15T06:02:43.721Z,4.37
2018-09-15T06:05:11.486Z,4.50
2018-09-15T06:07:39.333Z,4.53
2018-09-15T06:10:07.279Z,4.50
2018-09-15T06:12:35.395Z,5.17
2018-09-15T06:15:03.170Z,4.67
2018-09-15T06:17:30.905Z,5.13
2018-09-15T06:19:58.568Z,5.07
2018-09-15T06:22:26.258Z,4.87
2018-09-15T06:24:54.002Z,5.30
2018-09-15T06:27:21.597Z,5.23
2018-09-15T06:29:49.235Z,5.60
2018-09-15T06:32:17.477Z,5.10
2018-09-15T06:34:45.120Z,5.87
2018-09-15T06:37:13.017Z,5.70
2018-09-15T06:39:44.468Z,5.60
2018-09-15T06:42:12.240Z,5.50
2018-09-15T06:44:53.798Z,5.80
2018-09-15T06:47:21.483Z,5.27
2018-09-15T06:49:49.114Z,5.27
2018-09-15T06:52:17.053Z,5.27
2018-09-15T06:54:44.709Z,4.87
2018-09-15T06:57:12.333Z,4.93
2018-09-15T06:59:40.117Z,5.67
2018-09-15T07:02:07.740Z,5.83
2018-09-15T07:04:35.370Z,5.20
2018-09-15T07:07:03.614Z,5.63
2018-09-15T07:09:31.212Z,5.77
2018-09-15T07:11:58.786Z,5.33
2018-09-15T07:14:26.377Z,5.47
2018-09-15T07:16:54.003Z,5.77
2018-09-15T07:19:21.653Z,5.87
2018-09-15T07:21:49.689Z,5.83
2018-09-15T07:24:17.331Z,5.53
2018-09-15T07:26:44.952Z,5.53
2018-09-15T07:29:12.877Z,5.67
2018-09-15T07:31:40.514Z,5.50
2018-09-15T07:34:08.181Z,5.90
2018-09-15T07:36:36.091Z,5.57
2018-09-15T07:39:07.065Z,6.13
2018-09-15T07:41:34.729Z,5.43
2018-09-15T07:44:03.489Z,5.87
2018-09-15T07:46:31.181Z,5.80
2018-09-15T07:48:58.760Z,5.70
2018-09-15T07:51:26.588Z,5.60
2018-09-15T07:53:54.220Z,5.60
2018-09-15T07:56:21.882Z,6.40
2018-09-15T07:58:50.311Z,5.83
2018-09-15T08:01:17.901Z,6.30
2018-09-15T08:03:47.065Z,6.13
2018-09-15T08:06:14.809Z,5.80
2018-09-15T08:08:44.041Z,6.07
2018-09-15T08:11:11.737Z,6.00
2018-09-15T08:13:39.937Z,5.60
2018-09-15T08:16:07.672Z,5.97
2018-09-15T08:18:35.298Z,6.30
2018-09-15T08:21:02.895Z,5.77
2018-09-15T08:23:30.674Z,5.93
2018-09-15T08:25:58.619Z,6.50
2018-09-15T08:28:26.861Z,6.77
2018-09-15T08:30:54.619Z,5.93
2018-09-15T08:33:24.605Z,6.70
2018-09-15T08:35:53.281Z,6.30
2018-09-15T08:38:21.019Z,6.23
2018-09-15T08:40:48.674Z,6.20
2018-09-15T08:43:16.865Z,6.10
2018-09-15T08:45:46.856Z,5.73
2018-09-15T08:48:17.453Z,5.60
2018-09-15T08:50:45.984Z,5.30
2018-09-15T08:53:14.214Z,5.67
2018-09-15T08:55:42.612Z,5.77
2018-09-15T08:58:10.353Z,5.67
2018-09-15T09:00:38.029Z,6.00
2018-09-15T09:03:06.164Z,5.87
2018-09-15T09:05:35.184Z,6.20
2018-09-15T09:08:03.136Z,5.77
2018-09-15T09:10:31.891Z,5.70
2018-09-15T09:13:00.098Z,5.97
2018-09-15T09:15:27.989Z,6.17
2018-09-15T09:17:58.928Z,5.50
2018-09-15T09:20:26.794Z,5.87
2018-09-15T09:22:58.861Z,5.43
2018-09-15T09:25:29.725Z,6.30
2018-09-15T09:27:57.476Z,5.70
2018-09-15T09:30:25.567Z,5.87
2018-09-15T09:32:55.317Z,6.10
2018-09-15T09:35:23.086Z,6.10
2018-09-15T09:37:51.302Z,6.07
2018-09-15T09:40:30.445Z,5.60
2018-09-15T09:43:21.407Z,5.47
2018-09-15T09:45:49.493Z,5.30
2018-09-15T09:48:19.188Z,5.27
2018-09-15T09:50:51.365Z,5.47
2018-09-15T09:53:19.152Z,5.07
2018-09-15T09:55:46.958Z,4.83
2018-09-15T09:58:14.725Z,5.23
2018-09-15T10:01:05.587Z,5.20
2018-09-15T10:03:33.164Z,5.50
2018-09-15T10:06:01.201Z,4.70
2018-09-15T10:08:28.765Z,5.00
2018-09-15T10:10:56.690Z,4.33
2018-09-15T10:13:24.285Z,4.63
2018-09-15T10:15:52.130Z,4.87
2018-09-15T10:18:20.281Z,4.57
2018-09-15T10:20:47.869Z,4.13
2018-09-15T10:23:15.833Z,3.60
2018-09-15T10:25:43.702Z,4.30
2018-09-15T10:28:11.323Z,4.37
2018-09-15T10:30:38.966Z,4.00
2018-09-15T10:33:06.669Z,4.30
2018-09-15T10:35:34.286Z,3.97
2018-09-15T10:38:01.858Z,4.10
2018-09-15T10:40:29.738Z,3.90
2018-09-15T10:42:57.315Z,3.93
2018-09-15T10:45:24.877Z,4.67
2018-09-15T10:47:52.593Z,4.10
2018-09-15T10:50:20.141Z,4.17
2018-09-15T10:52:47.749Z,4.40
2018-09-15T10:55:15.811Z,4.77
2018-09-15T10:57:43.378Z,4.50
2018-09-15T11:00:11.047Z,4.23
2018-09-15T11:02:38.698Z,3.93
2018-09-15T11:05:07.535Z,4.00
2018-09-15T11:07:35.084Z,3.67
2018-09-15T11:10:07.863Z,3.70
2018-09-15T11:12:35.572Z,3.50
2018-09-15T11:15:03.188Z,3.47
2018-09-15T11:17:31.460Z,3.77
2018-09-15T11:19:58.998Z,4.33
2018-09-15T11:22:26.547Z,3.83
2018-09-15T11:24:54.307Z,4.13
2018-09-15T11:27:21.945Z,4.50
2018-09-15T11:29:49.601Z,4.30
2018-09-15T11:32:19.049Z,3.57
2018-09-15T11:34:46.732Z,3.70
2018-09-15T11:37:14.364Z,3.73
2018-09-15T11:39:42.214Z,3.23
2018-09-15T11:42:09.832Z,2.70
2018-09-15T11:44:37.457Z,3.20
2018-09-15T11:47:05.449Z,2.70
2018-09-15T11:49:33.032Z,2.20
2018-09-15T11:52:00.731Z,2.07
2018-09-15T11:54:28.620Z,1.90
2018-09-15T11:56:56.233Z,1.50
2018-09-15T11:59:23.925Z,1.77
2018-09-15T12:01:52.007Z,1.57
2018-09-15T12:04:19.597Z,1.13
2018-09-15T12:06:47.323Z,1.30
2018-09-15T12:09:15.160Z,1.73
2018-09-15T12:11:42.557Z,1.50
2018-09-15T12:14:11.178Z,1.50
2018-09-15T12:16:38.960Z,1.43
2018-09-15T12:19:06.675Z,1.67
2018-09-15T12:21:34.341Z,1.77
2018-09-15T12:24:02.150Z,1.47
2018-09-15T12:26:29.711Z,0.90
2018-09-15T12:28:57.280Z,0.83
2018-09-15T12:31:26.084Z,0.83
2018-09-15T12:33:54.434Z,0.90
2018-09-15T12:36:22.037Z,0.90
2018-09-15T12:38:49.659Z,0.67
2018-09-15T12:41:18.512Z,0.83
2018-09-15T12:43:46.961Z,0.63
2018-09-15T12:46:14.774Z,0.60
2018-09-15T12:48:42.759Z,0.80
2018-09-15T12:51:10.545Z,0.60
2018-09-15T12:53:38.165Z,0.53
2018-09-15T12:56:05.860Z,0.60
2018-09-15T12:58:33.407Z,0.60
2018-09-15T13:01:01.087Z,0.40
2018-09-15T13:03:29.066Z,0.50
2018-09-15T13:05:56.701Z,0.50
2018-09-15T13:08:24.445Z,0.50
2018-09-15T13:10:52.142Z,0.60
2018-09-15T13:13:20.340Z,0.30
2018-09-15T13:15:47.981Z,0.40
2018-09-15T13:18:15.567Z,0.63
2018-09-15T13:20:43.414Z,0.50
2018-09-15T13:23:11.125Z,0.43
2018-09-15T13:25:38.721Z,0.40
2018-09-15T13:28:06.627Z,0.60
2018-09-15T13:30:34.458Z,0.40
2018-09-15T13:33:02.116Z,0.50
2018-09-15T13:35:29.685Z,0.50
2018-09-15T13:37:57.615Z,0.70
2018-09-15T13:40:25.156Z,0.60
2018-09-15T13:42:52.960Z,0.60
2018-09-15T13:45:20.490Z,0.57
2018-09-15T13:47:48.077Z,0.50
2018-09-15T13:50:15.944Z,0.60
2018-09-15T13:52:44.656Z,0.40
2018-09-15T13:55:12.927Z,0.50
2018-09-15T13:57:40.537Z,0.30
2018-09-15T14:00:08.200Z,0.30
2018-09-15T14:02:40.616Z,0.60
2018-09-15T14:05:08.706Z,0.70
2018-09-15T14:07:36.338Z,0.50
2018-09-15T14:10:07.048Z,0.50
2018-09-15T14:12:31.622Z,0.50
2018-09-15T14:14:59.977Z,0.40
2018-09-15T14:17:27.864Z,0.40
2018-09-15T14:19:55.464Z,0.53
2018-09-15T14:22:23.427Z,0.40
2018-09-15T14:24:51.586Z,0.37
2018-09-15T14:27:19.912Z,0.40
2018-09-15T14:29:47.787Z,0.50
2018-09-15T14:32:15.616Z,0.47
2018-09-15T14:34:43.315Z,0.50
2018-09-15T14:37:11.352Z,0.40
2018-09-15T14:39:39.010Z,0.50
2018-09-15T14:42:07.593Z,0.40
2018-09-15T14:44:35.463Z,0.50
2018-09-15T14:47:03.122Z,0.40
2018-09-15T14:49:30.800Z,0.60
2018-09-15T14:51:58.417Z,0.60
2018-09-15T14:54:26.517Z,0.40
2018-09-15T14:56:54.413Z,0.50
2018-09-15T14:59:22.044Z,0.30
2018-09-15T15:01:49.698Z,0.40
2018-09-15T15:04:17.538Z,0.50
2018-09-15T15:06:45.133Z,0.60
2018-09-15T15:09:12.823Z,0.60
2018-09-15T15:11:40.773Z,0.50
2018-09-15T15:14:08.863Z,0.40
2018-09-15T15:16:37.025Z,0.50
2018-09-15T15:19:05.085Z,0.40
2018-09-15T15:21:33.069Z,0.40
2018-09-15T15:24:05.931Z,0.60
2018-09-15T15:26:33.779Z,0.60
2018-09-15T15:29:01.698Z,0.50
2018-09-15T15:31:29.382Z,0.40
2018-09-15T15:33:57.409Z,0.73
2018-09-15T15:36:25.837Z,0.50
2018-09-15T15:38:53.500Z,0.50
2018-09-15T15:41:21.404Z,0.60
2018-09-15T15:43:48.980Z,0.47
2018-09-15T15:46:16.550Z,0.60
2018-09-15T15:48:44.401Z,0.60
2018-09-15T15:51:12.060Z,0.70
2018-09-15T15:53:39.722Z,0.90
2018-09-15T15:56:07.577Z,0.50
2018-09-15T15:58:35.322Z,0.57
2018-09-15T16:01:02.966Z,0.50
2018-09-15T16:03:30.765Z,0.60
2018-09-15T16:05:58.530Z,0.50
2018-09-15T16:08:26.509Z,0.40
2018-09-15T16:10:54.121Z,0.60
2018-09-15T16:13:21.727Z,0.70
2018-09-15T16:15:49.825Z,0.53
2018-09-15T16:18:17.491Z,0.50
2018-09-15T16:20:45.181Z,0.50
2018-09-15T16:23:12.945Z,0.50
2018-09-15T16:25:40.681Z,0.50
2018-09-15T16:28:08.261Z,0.60
2018-09-15T16:30:36.146Z,0.50
2018-09-15T16:33:03.840Z,0.50
2018-09-15T16:35:32.069Z,0.60
2018-09-15T16:37:59.504Z,0.60
2018-09-15T16:40:27.157Z,0.60
2018-09-15T16:42:54.893Z,0.40
2018-09-15T16:45:22.504Z,0.57
2018-09-15T16:47:50.094Z,0.90
2018-09-15T16:50:17.973Z,0.73
2018-09-15T16:52:45.626Z,0.70
2018-09-15T16:55:14.515Z,0.70
2018-09-15T16:57:42.194Z,0.70
2018-09-15T17:00:09.850Z,0.87
2018-09-15T17:02:37.405Z,0.70
2018-09-15T17:05:05.369Z,0.70
2018-09-15T17:07:33.169Z,0.83
2018-09-15T17:10:01.054Z,0.87
2018-09-15T17:12:28.781Z,1.10
2018-09-15T17:14:56.401Z,1.00
2018-09-15T17:17:24.538Z,1.13
2018-09-15T17:19:52.144Z,1.30
2018-09-15T17:22:19.834Z,1.00
2018-09-15T17:24:47.766Z,0.90
2018-09-15T17:27:15.426Z,0.90
2018-09-15T17:29:43.044Z,1.13
2018-09-15T17:32:10.776Z,1.07
2018-09-15T17:34:38.445Z,1.50
2018-09-15T17:37:06.147Z,1.30
2018-09-15T17:39:33.839Z,1.50
2018-09-15T17:42:01.413Z,1.23
2018-09-15T17:44:29.007Z,1.67
2018-09-15T17:46:57.085Z,3.47
2018-09-15T17:49:24.751Z,4.40
2018-09-15T17:51:52.453Z,4.20
2018-09-15T17:54:20.048Z,3.93
2018-09-15T17:56:47.674Z,3.83
2018-09-15T17:59:15.311Z,3.20
2018-09-15T18:01:43.321Z,2.80
2018-09-15T18:04:11.075Z,2.40
2018-09-15T18:06:38.685Z,2.37
2018-09-15T18:09:07.652Z,2.20
2018-09-15T18:11:35.273Z,2.03
2018-09-15T18:14:03.142Z,2.10
2018-09-15T18:16:31.474Z,1.87
2018-09-15T18:18:59.201Z,2.00
2018-09-15T18:21:26.793Z,2.00
2018-09-15T18:23:55.550Z,1.50
2018-09-15T18:26:23.084Z,1.30
2018-09-15T18:28:50.669Z,1.98
2018-09-15T18:31:18.346Z,1.27
2018-09-15T18:33:46.103Z,1.50
2018-09-15T18:36:14.289Z,1.50
2018-09-15T18:38:42.181Z,1.70
2018-09-15T18:41:09.596Z,1.40
2018-09-15T18:43:37.186Z,1.50
2018-09-15T18:46:04.822Z,1.37
2018-09-15T18:48:32.448Z,1.30
2018-09-15T18:51:00.064Z,1.20
2018-09-15T18:53:27.667Z,1.20
2018-09-15T18:55:55.280Z,1.10
2018-09-15T18:58:22.938Z,1.20
2018-09-15T19:00:50.553Z,1.23
2018-09-15T19:03:18.365Z,1.30
2018-09-15T19:05:46.393Z,1.37
2018-09-15T19:08:14.018Z,1.63
2018-09-15T19:10:42.259Z,1.77
2018-09-15T19:13:10.422Z,1.50
2018-09-15T19:15:37.997Z,1.53
2018-09-15T19:18:05.874Z,1.50
2018-09-15T19:20:33.529Z,1.40
2018-09-15T19:23:01.372Z,1.33
2018-09-15T19:25:29.978Z,1.30
2018-09-15T19:27:57.615Z,1.50
2018-09-15T19:30:25.296Z,1.40
2018-09-15T19:32:53.223Z,1.00
2018-09-15T19:35:20.798Z,1.30
2018-09-15T19:37:48.449Z,1.20
2018-09-15T19:40:16.223Z,1.20
2018-09-15T19:42:44.195Z,1.30
2018-09-15T19:45:11.941Z,1.67
2018-09-15T19:47:39.852Z,1.10
2018-09-15T19:50:07.526Z,1.10
2018-09-15T19:52:35.258Z,1.10
2018-09-15T19:55:03.203Z,1.17
2018-09-15T19:57:30.927Z,1.30
2018-09-15T19:59:58.615Z,1.50
2018-09-15T20:02:26.227Z,1.30
2018-09-15T20:04:53.893Z,1.37
2018-09-15T20:07:21.504Z,1.20
2018-09-15T20:09:49.142Z,1.20
2018-09-15T20:12:16.770Z,1.23
2018-09-15T20:14:44.654Z,1.20
2018-09-15T20:17:11.074Z,1.20
2018-09-15T20:19:37.422Z,1.20
2018-09-15T20:22:06.211Z,1.10
2018-09-15T20:24:33.820Z,1.20
2018-09-15T20:27:01.516Z,1.17
2018-09-15T20:29:29.161Z,1.40
2018-09-15T20:31:56.777Z,1.00
2018-09-15T20:34:24.605Z,1.07
2018-09-15T20:36:52.334Z,1.27
2018-09-15T20:39:19.992Z,1.23
2018-09-15T20:41:47.629Z,1.20
2018-09-15T20:44:14.875Z,1.10
2018-09-15T20:46:42.621Z,1.13
2018-09-15T20:49:10.380Z,1.20
2018-09-15T20:51:38.108Z,1.30
2018-09-15T20:54:06.065Z,1.50
2018-09-15T20:56:33.657Z,1.70
2018-09-15T20:59:01.245Z,1.60
2018-09-15T21:01:28.843Z,1.80
2018-09-15T21:03:56.427Z,1.60
2018-09-15T21:06:24.537Z,1.80
2018-09-15T21:08:52.185Z,1.80
2018-09-15T21:11:19.809Z,2.00
2018-09-15T21:13:47.952Z,1.47
2018-09-15T21:16:15.698Z,1.77
2018-09-15T21:18:43.709Z,2.00
2018-09-15T21:21:11.622Z,1.87
2018-09-15T21:23:39.269Z,1.70
2018-09-15T21:26:06.853Z,1.53
2018-09-15T21:28:34.500Z,2.10
2018-09-15T21:31:02.029Z,1.73
2018-09-15T21:33:29.637Z,1.77
2018-09-15T21:35:57.370Z,1.80
2018-09-15T21:38:24.946Z,1.67
2018-09-15T21:40:52.517Z,1.40
2018-09-15T21:43:20.608Z,1.70
2018-09-15T21:45:48.044Z,1.60
2018-09-15T21:48:15.660Z,1.60
2018-09-15T21:50:43.510Z,1.40
2018-09-15T21:53:11.136Z,1.63
2018-09-15T21:55:38.669Z,1.43
2018-09-15T21:58:06.362Z,1.87
2018-09-15T22:00:34.141Z,1.40
2018-09-15T22:03:02.119Z,1.50
2018-09-15T22:05:29.930Z,1.47
2018-09-15T22:07:57.450Z,1.37
2018-09-15T22:10:25.109Z,1.60
2018-09-15T22:12:52.724Z,1.33
2018-09-15T22:15:24.220Z,1.40
2018-09-15T22:17:52.314Z,1.23
2018-09-15T22:20:20.461Z,1.30
2018-09-15T22:22:48.161Z,1.37
2018-09-15T22:25:16.121Z,1.30
2018-09-15T22:27:44.026Z,1.27
2018-09-15T22:30:11.687Z,1.40
2018-09-15T22:32:39.245Z,1.70
2018-09-15T22:35:06.880Z,1.30
2018-09-15T22:37:34.457Z,1.60
2018-09-15T22:40:02.667Z,1.63
2018-09-15T22:42:30.391Z,1.70
2018-09-15T22:44:58.302Z,1.33
2018-09-15T22:47:26.142Z,1.33
2018-09-15T22:49:54.187Z,1.23
2018-09-15T22:52:21.785Z,1.00
2018-09-15T22:54:49.467Z,1.10
2018-09-15T22:57:17.172Z,1.33
2018-09-15T22:59:44.744Z,1.10
2018-09-15T23:02:12.356Z,1.33
2018-09-15T23:04:40.133Z,1.23
2018-09-15T23:07:07.693Z,1.10
2018-09-15T23:09:35.359Z,1.10
2018-09-15T23:12:02.970Z,1.40
2018-09-15T23:14:30.652Z,1.20
2018-09-15T23:16:58.245Z,1.40
2018-09-15T23:19:26.089Z,1.40
2018-09-15T23:21:53.664Z,1.10
2018-09-15T23:24:21.241Z,1.33
2018-09-15T23:26:48.872Z,1.47
2018-09-15T23:29:22.568Z,1.07
2018-09-15T23:31:56.773Z,1.40
2018-09-15T23:34:24.517Z,1.20
2018-09-15T23:37:07.557Z,1.43
2018-09-15T23:39:35.116Z,1.50
2018-09-15T23:42:02.873Z,1.30
2018-09-15T23:44:30.493Z,1.30
2018-09-15T23:46:58.662Z,1.23
2018-09-15T23:49:27.094Z,1.30
2018-09-15T23:51:54.753Z,1.27
2018-09-15T23:54:22.377Z,1.07
2018-09-15T23:56:50.161Z,1.27
2018-09-15T23:59:17.735Z,1.50
